Rolling Meadows, Illinois
Current Conditions -  °F | °C
As of 10:52 AM on Friday 28 Nov 2014 (Local Time) from KPWK Reporting Station
Clear Clear  
Wind Chill: 11°   Ceiling: Unl
Heat Index: 24°   Visibility: 10mi
Dew Point: 16°   Wind: 15mph
Humidity: 71%   Direction: 170°S
Pressure: 30.18"   Gusts: NA
Location:  42.08°N, 88.03°W
Report Text: KPWK 281652Z 17013KT 10SM CLR M04/M09 A3018 RMK AO2 SLP230 T10441089
Loading
Personal Weather Stations






























Interactive Weather Map New forecast layout! Learn more

10-Day Weather Forecast

Advertisements
Track Severe Weather on mobile